Teresopolis, Brazil
Current Conditions -  °F | °C
As of 3:00 PM on Sunday 23 Nov 2014 (Local Time) from SBGL Reporting Station
Broken Clouds Broken Clouds  
Wind Chill: 79°   Ceiling: 8000
Heat Index: 82°   Visibility: 5mi
Dew Point: 72°   Wind: 5mph
Humidity: 78%   Direction: 300°WNW
Pressure: 29.88"   Gusts: NA
Location:  22.41°S, 42.98°W
Report Text: SBGL 231700Z 30004KT 8000 FEW015 SCT040 BKN080 26/22 Q1012
Loading
Personal Weather Stations






























Interactive Weather Map New forecast layout! Learn more

10-Day Weather Forecast

Advertisements
Track Severe Weather on mobile